Date,TemperatureHighF,TemperatureAvgF,TemperatureLowF,DewpointHighF,DewpointAvgF,DewpointLowF,HumidityHigh,HumidityAvg,HumidityLow,PressureMaxIn,PressureMinIn,WindSpeedMaxMPH,WindSpeedAvgMPH,GustSpeedMaxMPH,PrecipitationSumIn
2013-7-1,78,72,64,64,56,51,81,58,43,29.96,29.88,18,3,18,0.01
2013-7-2,71,64,61,62,60,57,97,87,65,30.04,29.92,14,2,14,0.81
2013-7-3,84,71,61,64,62,58,98,75,46,30.08,29.99,5,0,0,0.01
2013-7-4,87,74,61,66,62,58,97,69,38,30.08,29.98,11,0,0,0.00
2013-7-5,86,75,64,71,66,62,98,77,49,30.07,29.98,11,0,0,0.00
2013-7-6,89,76,67,72,66,59,97,74,43,30.03,29.94,6,0,0,0.00
2013-7-7,94,81,66,73,68,63,93,69,42,30.03,29.95,4,0,0,0.00
2013-7-8,95,83,72,77,72,68,89,70,50,30.07,29.98,8,0,0,0.00
2013-7-9,96,86,76,76,73,71,85,66,46,30.02,29.89,10,1,0,0.00
2013-7-10,87,80,73,76,73,67,92,78,59,29.96,29.85,11,1,0,0.17
2013-7-11,85,77,68,67,62,57,86,62,41,30.04,29.96,17,1,17,0.00
2013-7-12,87,74,61,63,59,53,96,65,35,30.10,30.01,9,0,0,0.00
2013-7-13,87,75,60,66,61,57,93,65,40,30.09,29.99,10,1,0,0.00
2013-7-14,91,78,65,72,68,63,93,73,47,30.12,30.03,14,1,14,0.00
2013-7-15,93,82,72,76,73,71,97,76,51,30.20,30.11,14,1,14,0.00
2013-7-16,95,84,73,76,73,69,97,71,46,30.28,30.19,9,0,0,0.00
2013-7-17,96,85,74,76,73,70,95,71,46,30.30,30.16,7,0,0,0.00
2013-7-18,97,86,74,76,73,70,96,69,44,30.18,29.99,8,0,0,0.00
2013-7-19,97,86,74,75,72,70,88,66,44,30.00,29.84,8,1,0,0.00
2013-7-20,93,82,73,76,72,69,91,73,49,29.91,29.77,14,1,14,0.05
2013-7-21,85,77,72,75,72,70,93,84,69,29.92,29.82,6,0,0,0.01
2013-7-22,93,81,70,76,72,69,97,76,48,29.85,29.74,11,1,0,0.01
2013-7-23,92,83,75,76,71,65,90,68,49,29.88,29.71,12,2,12,0.00
2013-7-24,81,74,66,66,56,51,81,55,36,30.02,29.88,13,2,13,0.00
2013-7-25,85,72,59,60,57,54,93,63,37,30.10,30.01,11,1,0,0.00
2013-7-26,75,71,65,70,65,58,92,81,66,30.06,29.93,8,0,0,0.09
2013-7-27,76,70,57,68,57,50,96,67,42,29.99,29.93,14,2,14,0.00
2013-7-28,81,68,52,59,53,47,97,63,33,30.04,29.98,14,1,14,0.00
2013-7-29,78,69,58,66,62,56,97,79,53,30.15,30.04,4,0,0,0.00
2013-7-30,75,71,66,72,68,63,97,91,78,30.11,29.98,8,0,0,0.95
2013-7-31,83,74,67,74,70,65,98,87,65,30.03,29.96,13,1,13,0.00